createdAt,value
2018-12-27T00:03:00.098Z,98399.51
2018-12-27T00:07:55.946Z,98399.07
2018-12-27T00:12:51.842Z,98402.09
2018-12-27T00:17:47.690Z,98399.11
2018-12-27T00:22:43.574Z,98402.11
2018-12-27T00:27:39.407Z,98389.67
2018-12-27T00:32:35.497Z,98400.84
2018-12-27T00:37:31.608Z,98395.80
2018-12-27T00:42:27.643Z,98398.92
2018-12-27T00:47:23.661Z,98394.50
2018-12-27T00:52:19.658Z,98385.59
2018-12-27T00:57:15.679Z,98381.02
2018-12-27T01:02:11.675Z,98374.28
2018-12-27T01:07:07.695Z,98373.33
2018-12-27T01:12:03.846Z,98366.84
2018-12-27T01:16:59.963Z,98356.79
2018-12-27T01:21:56.000Z,98361.21
2018-12-27T01:26:52.043Z,98365.03
2018-12-27T01:31:50.701Z,98362.64
2018-12-27T01:36:46.423Z,98360.44
2018-12-27T01:41:42.547Z,98357.36
2018-12-27T01:46:38.579Z,98362.76
2018-12-27T01:51:34.582Z,98363.84
2018-12-27T01:56:30.620Z,98357.56
2018-12-27T02:01:26.712Z,98344.19
2018-12-27T02:06:22.731Z,98353.36
2018-12-27T02:11:18.819Z,98347.80
2018-12-27T02:16:14.830Z,98355.57
2018-12-27T02:21:11.897Z,98351.27
2018-12-27T02:26:07.913Z,98351.36
2018-12-27T02:31:03.947Z,98337.14
2018-12-27T02:35:59.964Z,98339.73
2018-12-27T02:40:56.202Z,98320.41
2018-12-27T02:45:52.225Z,98325.67
2018-12-27T02:50:48.368Z,98313.94
2018-12-27T02:55:44.363Z,98320.45
2018-12-27T03:00:40.405Z,98307.55
2018-12-27T03:05:36.582Z,98295.83
2018-12-27T03:10:32.939Z,98292.80
2018-12-27T03:15:29.711Z,98281.65
2018-12-27T03:20:25.970Z,98283.76
2018-12-27T03:25:22.279Z,98280.34
2018-12-27T03:30:18.299Z,98267.77
2018-12-27T03:35:14.339Z,98258.19
2018-12-27T03:40:10.820Z,98250.25
2018-12-27T03:45:06.823Z,98253.02
2018-12-27T03:50:02.893Z,98247.73
2018-12-27T03:54:58.998Z,98243.67
2018-12-27T03:59:55.214Z,98246.95
2018-12-27T04:04:51.703Z,98243.23
2018-12-27T04:09:48.333Z,98238.52
2018-12-27T04:14:44.443Z,98229.21
2018-12-27T04:19:40.884Z,98226.30
2018-12-27T04:24:37.502Z,98226.02
2018-12-27T04:29:33.344Z,98229.20
2018-12-27T04:34:30.930Z,98235.65
2018-12-27T04:39:27.392Z,98234.23
2018-12-27T04:44:24.756Z,98234.58
2018-12-27T04:49:21.276Z,98241.22
2018-12-27T04:54:17.916Z,98241.66
2018-12-27T04:59:15.023Z,98239.59
2018-12-27T05:09:51.086Z,98243.23
2018-12-27T05:15:25.075Z,98234.91
2018-12-27T05:20:20.828Z,98235.52
2018-12-27T05:25:35.654Z,98230.40
2018-12-27T05:30:50.454Z,98223.36
2018-12-27T05:36:05.448Z,98218.80
2018-12-27T05:41:20.513Z,98224.70
2018-12-27T05:46:35.295Z,98221.72
2018-12-27T05:52:09.881Z,98220.02
2018-12-27T05:57:43.644Z,98233.31
2018-12-27T06:08:40.275Z,98239.83
2018-12-27T06:13:55.122Z,98242.72
2018-12-27T06:19:09.889Z,98244.86
2018-12-27T06:24:46.450Z,98244.78
2018-12-27T06:36:05.983Z,98248.55
2018-12-27T06:59:31.462Z,98253.01
2018-12-27T07:05:43.065Z,98255.09
2018-12-27T07:11:56.446Z,98257.63
2018-12-27T07:17:33.876Z,98259.17
2018-12-27T07:22:50.971Z,98272.52
2018-12-27T07:34:18.107Z,98259.22
2018-12-27T07:39:38.782Z,98254.39
2018-12-27T07:45:36.733Z,98254.31
2018-12-27T08:01:53.741Z,98270.14
2018-12-27T08:07:08.735Z,98262.81
2018-12-27T08:12:23.699Z,98262.46
2018-12-27T08:18:33.521Z,98260.12
2018-12-27T08:23:36.305Z,98263.17
2018-12-27T08:51:26.187Z,98275.45
2018-12-27T09:01:57.353Z,98264.28
2018-12-27T09:07:12.196Z,98265.21
2018-12-27T09:12:34.019Z,98263.83
2018-12-27T09:18:29.617Z,98265.90
2018-12-27T09:23:28.885Z,98259.55
2018-12-27T09:28:27.681Z,98267.28
2018-12-27T09:33:23.642Z,98263.52
2018-12-27T09:38:38.454Z,98269.62
2018-12-27T09:55:16.557Z,98266.59
2018-12-27T10:00:24.547Z,98260.48
2018-12-27T10:05:47.062Z,98256.34
2018-12-27T10:11:02.462Z,98248.47
2018-12-27T10:21:58.381Z,98248.20
2018-12-27T10:27:35.895Z,98242.27
2018-12-27T10:32:52.425Z,98234.34
2018-12-27T10:49:22.454Z,98223.05
2018-12-27T10:55:17.975Z,98211.70
2018-12-27T11:00:32.374Z,98200.63
2018-12-27T11:05:48.836Z,98192.74
2018-12-27T11:11:11.640Z,98191.18
2018-12-27T11:16:49.051Z,98180.98
2018-12-27T11:22:05.080Z,98175.52
2018-12-27T11:27:22.712Z,98164.90
2018-12-27T11:32:37.653Z,98154.28
2018-12-27T11:38:12.954Z,98142.59
2018-12-27T11:49:11.465Z,98128.80
2018-12-27T11:59:30.358Z,98117.00
2018-12-27T12:04:45.401Z,98106.44
2018-12-27T12:10:02.139Z,98096.06
2018-12-27T12:15:17.032Z,98097.95
2018-12-27T12:21:07.433Z,98083.83
2018-12-27T12:26:10.764Z,98074.65
2018-12-27T12:37:14.377Z,98078.00
2018-12-27T12:43:10.565Z,98079.13
2018-12-27T12:48:25.319Z,98068.72
2018-12-27T12:58:53.108Z,98058.55
2018-12-27T13:04:09.408Z,98060.88
2018-12-27T13:09:24.122Z,98054.99
2018-12-27T13:19:58.964Z,98048.94
2018-12-27T13:25:13.206Z,98045.52
2018-12-27T13:30:28.008Z,98038.34
2018-12-27T13:41:03.628Z,98029.26
2018-12-27T13:46:18.414Z,98033.61
2018-12-27T13:51:33.176Z,98034.42
2018-12-27T13:56:55.778Z,98031.29
2018-12-27T14:02:03.532Z,98040.75
2018-12-27T14:07:18.288Z,98024.01
2018-12-27T14:12:33.438Z,98027.16
2018-12-27T14:17:48.182Z,98027.44
2018-12-27T14:23:02.937Z,98027.94
2018-12-27T14:28:17.888Z,98033.63
2018-12-27T14:33:32.705Z,98027.34
2018-12-27T14:38:28.646Z,98033.23
2018-12-27T14:43:23.846Z,98030.08
2018-12-27T14:48:19.869Z,98038.66
2018-12-27T14:53:15.751Z,98033.98
2018-12-27T14:58:11.731Z,98032.16
2018-12-27T15:03:07.759Z,98034.33
2018-12-27T15:08:03.547Z,98028.61
2018-12-27T15:12:59.440Z,98026.37
2018-12-27T15:17:55.311Z,98028.99
2018-12-27T15:22:51.191Z,98028.05
2018-12-27T15:27:46.976Z,98017.34
2018-12-27T15:32:42.900Z,98017.75
2018-12-27T15:37:38.818Z,98022.61
2018-12-27T15:42:34.934Z,98021.36
2018-12-27T15:47:31.096Z,98018.23
2018-12-27T15:52:27.163Z,98017.38
2018-12-27T15:57:23.395Z,98021.06
2018-12-27T16:02:19.288Z,98018.81
2018-12-27T16:07:15.105Z,98019.95
2018-12-27T16:12:10.935Z,98027.73
2018-12-27T16:17:06.754Z,98030.49
2018-12-27T16:22:02.567Z,98031.78
2018-12-27T16:26:58.364Z,98022.61
2018-12-27T16:31:59.945Z,98020.55
2018-12-27T16:36:56.624Z,98021.83
2018-12-27T16:41:53.494Z,98025.27
2018-12-27T16:46:50.663Z,98029.50
2018-12-27T16:51:47.120Z,98027.80
2018-12-27T16:56:43.910Z,98032.48
2018-12-27T17:01:40.940Z,98033.52
2018-12-27T17:06:37.876Z,98035.25
2018-12-27T17:11:35.025Z,98043.78
2018-12-27T17:16:31.595Z,98047.08
2018-12-27T17:21:28.404Z,98046.63
2018-12-27T17:26:25.380Z,98041.14
2018-12-27T17:31:22.106Z,98040.14
2018-12-27T17:36:19.112Z,98052.83
2018-12-27T17:41:15.819Z,98051.27
2018-12-27T17:46:12.448Z,98051.64
2018-12-27T17:51:09.402Z,98062.84
2018-12-27T17:56:06.326Z,98058.53
2018-12-27T18:01:43.215Z,98056.70
2018-12-27T18:06:40.040Z,98044.98
2018-12-27T18:11:36.853Z,98042.36
2018-12-27T18:16:33.564Z,98046.52
2018-12-27T18:27:42.476Z,98049.87
2018-12-27T18:32:39.410Z,98058.87
2018-12-27T18:37:37.906Z,98061.05
2018-12-27T18:42:34.750Z,98063.77
2018-12-27T18:47:31.317Z,98067.64
2018-12-27T18:52:28.027Z,98067.64
2018-12-27T18:57:24.646Z,98066.72
2018-12-27T19:02:21.523Z,98071.00
2018-12-27T19:07:18.636Z,98070.59
2018-12-27T19:13:09.617Z,98068.93
2018-12-27T19:18:33.483Z,98061.62
2018-12-27T19:23:31.146Z,98066.79
2018-12-27T19:28:29.690Z,98063.73
2018-12-27T19:33:38.052Z,98070.73
2018-12-27T19:38:33.871Z,98071.80
2018-12-27T19:43:30.674Z,98070.59
2018-12-27T19:48:27.314Z,98073.25
2018-12-27T19:53:24.172Z,98065.24
2018-12-27T19:58:21.084Z,98069.45
2018-12-27T20:03:18.069Z,98066.64
2018-12-27T20:08:15.089Z,98074.31
2018-12-27T20:13:13.951Z,98073.80
2018-12-27T20:18:10.865Z,98075.16
2018-12-27T20:23:07.657Z,98080.69
2018-12-27T20:28:04.187Z,98090.60
2018-12-27T20:33:00.809Z,98088.94
2018-12-27T21:02:32.156Z,98086.07
2018-12-27T21:07:28.800Z,98088.69
2018-12-27T21:12:25.624Z,98092.04
2018-12-27T21:17:22.599Z,98094.99
2018-12-27T21:22:19.240Z,98090.23
2018-12-27T21:27:15.965Z,98089.31
2018-12-27T21:32:11.850Z,98085.44
2018-12-27T21:37:08.224Z,98090.20
2018-12-27T21:42:04.797Z,98086.77
2018-12-27T21:47:01.585Z,98087.83
2018-12-27T21:51:58.372Z,98081.90
2018-12-27T21:56:54.983Z,98085.62
2018-12-27T22:01:51.681Z,98082.74
2018-12-27T22:06:48.330Z,98075.73
2018-12-27T22:11:44.845Z,98068.99
2018-12-27T22:17:24.097Z,98080.09
2018-12-27T22:22:09.999Z,98072.30
2018-12-27T22:27:06.693Z,98082.03
2018-12-27T22:32:11.136Z,98075.84
2018-12-27T22:37:06.840Z,98078.55
2018-12-27T22:42:03.202Z,98083.82
2018-12-27T22:47:00.331Z,98075.97
2018-12-27T22:51:56.145Z,98068.22
2018-12-27T22:56:52.273Z,98072.02
2018-12-27T23:01:48.285Z,98058.63
2018-12-27T23:06:44.064Z,98066.38
2018-12-27T23:11:39.916Z,98056.45
2018-12-27T23:16:35.703Z,98058.38
2018-12-27T23:21:32.539Z,98046.41
2018-12-27T23:26:28.257Z,98044.86
2018-12-27T23:31:24.110Z,98053.59
2018-12-27T23:36:20.219Z,98049.51
2018-12-27T23:41:16.669Z,98042.86
2018-12-27T23:46:12.483Z,98051.41
2018-12-27T23:51:09.467Z,98053.18
2018-12-27T23:56:05.793Z,98047.70
